createdAt,value
2017-05-25T00:01:41.962Z,67.70
2017-05-25T00:04:09.141Z,67.70
2017-05-25T00:06:36.306Z,67.90
2017-05-25T00:09:04.010Z,68.90
2017-05-25T00:11:31.257Z,68.30
2017-05-25T00:13:58.405Z,68.10
2017-05-25T00:16:25.583Z,68.20
2017-05-25T00:18:52.773Z,68.30
2017-05-25T00:21:19.971Z,68.40
2017-05-25T00:23:47.124Z,68.40
2017-05-25T00:26:14.304Z,68.40
2017-05-25T00:28:41.488Z,68.70
2017-05-25T00:31:08.680Z,68.90
2017-05-25T00:33:35.873Z,69.40
2017-05-25T00:36:03.040Z,69.80
2017-05-25T00:38:30.569Z,71.40
2017-05-25T00:40:57.753Z,71.60
2017-05-25T00:43:24.937Z,71.90
2017-05-25T00:45:52.175Z,72.00
2017-05-25T00:48:19.351Z,72.20
2017-05-25T00:50:46.622Z,72.50
2017-05-25T00:53:14.010Z,72.60
2017-05-25T00:55:41.848Z,72.80
2017-05-25T00:58:09.056Z,73.00
2017-05-25T01:00:36.287Z,73.00
2017-05-25T01:03:03.505Z,74.00
2017-05-25T01:05:30.676Z,73.40
2017-05-25T01:07:58.210Z,73.60
2017-05-25T01:10:25.746Z,74.80
2017-05-25T01:12:52.923Z,74.40
2017-05-25T01:15:20.102Z,74.20
2017-05-25T01:17:47.311Z,74.70
2017-05-25T01:20:14.563Z,74.90
2017-05-25T01:22:41.878Z,75.10
2017-05-25T01:25:09.052Z,75.20
2017-05-25T01:27:36.203Z,75.30
2017-05-25T01:30:03.521Z,75.20
2017-05-25T01:32:30.693Z,75.20
2017-05-25T01:34:57.884Z,75.60
2017-05-25T01:37:25.056Z,75.80
2017-05-25T01:39:52.649Z,75.90
2017-05-25T01:42:19.995Z,76.40
2017-05-25T01:44:47.249Z,76.50
2017-05-25T01:47:14.618Z,76.60
2017-05-25T01:49:41.922Z,76.70
2017-05-25T01:52:09.146Z,76.70
2017-05-25T01:54:36.356Z,76.80
2017-05-25T01:57:03.532Z,76.80
2017-05-25T01:59:30.716Z,76.70
2017-05-25T02:01:57.892Z,76.60
2017-05-25T02:04:25.157Z,76.50
2017-05-25T02:06:52.333Z,76.40
2017-05-25T02:09:20.457Z,76.60
2017-05-25T02:11:47.697Z,76.30
2017-05-25T02:14:14.969Z,76.60
2017-05-25T02:16:42.659Z,76.60
2017-05-25T02:19:09.823Z,76.50
2017-05-25T02:21:36.998Z,76.70
2017-05-25T02:24:04.171Z,77.00
2017-05-25T02:26:31.333Z,77.10
2017-05-25T02:28:58.514Z,77.30
2017-05-25T02:31:25.687Z,77.20
2017-05-25T02:33:52.963Z,77.20
2017-05-25T02:36:20.132Z,77.00
2017-05-25T02:38:47.304Z,76.80
2017-05-25T02:41:14.576Z,76.60
2017-05-25T02:43:41.767Z,76.90
2017-05-25T02:46:09.045Z,77.20
2017-05-25T02:48:36.297Z,77.00
2017-05-25T02:51:03.580Z,77.30
2017-05-25T02:53:31.158Z,77.50
2017-05-25T02:55:58.367Z,77.80
2017-05-25T02:58:25.598Z,77.90
2017-05-25T03:00:52.872Z,78.20
2017-05-25T03:03:20.176Z,78.00
2017-05-25T03:05:47.348Z,77.90
2017-05-25T03:08:14.542Z,78.00
2017-05-25T03:10:42.227Z,78.20
2017-05-25T03:13:10.140Z,78.30
2017-05-25T03:15:38.128Z,78.20
2017-05-25T03:18:05.320Z,78.10
2017-05-25T03:20:32.601Z,78.20
2017-05-25T03:22:59.754Z,78.30
2017-05-25T03:25:26.932Z,78.40
2017-05-25T03:27:54.073Z,78.30
2017-05-25T03:30:21.719Z,78.10
2017-05-25T03:32:48.891Z,78.00
2017-05-25T03:35:16.055Z,77.90
2017-05-25T03:37:43.256Z,77.80
2017-05-25T03:40:10.491Z,77.90
2017-05-25T03:42:37.664Z,78.00
2017-05-25T03:45:04.934Z,77.70
2017-05-25T03:47:32.108Z,77.30
2017-05-25T03:49:59.273Z,77.00
2017-05-25T03:52:26.432Z,76.60
2017-05-25T03:54:53.597Z,77.40
2017-05-25T03:57:20.769Z,75.00
2017-05-25T03:59:48.401Z,74.80
2017-05-25T04:02:16.191Z,74.60
2017-05-25T04:04:43.980Z,74.10
2017-05-25T04:07:11.172Z,74.10
2017-05-25T04:09:38.339Z,74.20
2017-05-25T04:12:05.545Z,74.20
2017-05-25T04:14:32.793Z,74.10
2017-05-25T04:16:59.972Z,74.10
2017-05-25T04:19:27.145Z,73.70
2017-05-25T04:21:54.300Z,73.30
2017-05-25T04:24:21.486Z,73.00
2017-05-25T04:26:48.698Z,73.00
2017-05-25T04:29:15.870Z,73.00
2017-05-25T04:31:43.052Z,72.90
2017-05-25T04:34:10.224Z,72.80
2017-05-25T04:36:37.407Z,72.50
2017-05-25T04:39:04.563Z,72.20
2017-05-25T04:41:31.834Z,72.00
2017-05-25T04:43:58.998Z,71.40
2017-05-25T04:46:26.194Z,71.70
2017-05-25T04:48:53.452Z,72.10
2017-05-25T04:51:20.646Z,72.20
2017-05-25T04:53:47.803Z,72.10
2017-05-25T04:56:14.975Z,72.30
2017-05-25T04:58:42.143Z,71.70
2017-05-25T05:01:09.314Z,72.20
2017-05-25T05:03:36.475Z,69.70
2017-05-25T05:06:04.084Z,68.90
2017-05-25T05:08:31.275Z,67.50
2017-05-25T05:10:58.460Z,67.50
2017-05-25T05:13:25.619Z,67.30
2017-05-25T05:15:52.772Z,67.60
2017-05-25T05:18:19.952Z,67.90
2017-05-25T05:20:47.133Z,67.50
2017-05-25T05:23:14.319Z,68.00
2017-05-25T05:25:41.478Z,68.30
2017-05-25T05:28:09.149Z,68.00
2017-05-25T05:30:36.320Z,67.80
2017-05-25T05:33:03.482Z,67.80
2017-05-25T05:35:30.638Z,67.50
2017-05-25T05:37:57.914Z,67.10
2017-05-25T05:40:25.095Z,67.20
2017-05-25T05:42:52.363Z,67.10
2017-05-25T05:45:19.633Z,66.70
2017-05-25T05:47:46.907Z,67.20
2017-05-25T05:50:14.086Z,67.60
2017-05-25T05:52:41.259Z,68.10
2017-05-25T05:55:08.504Z,68.30
2017-05-25T05:57:35.702Z,68.50
2017-05-25T06:00:02.966Z,68.30
2017-05-25T06:02:30.122Z,68.50
2017-05-25T06:04:57.318Z,68.20
2017-05-25T06:07:24.482Z,68.00
2017-05-25T06:09:51.707Z,68.50
2017-05-25T06:12:33.866Z,68.40
2017-05-25T06:15:01.120Z,68.60
2017-05-25T06:17:28.320Z,68.00
2017-05-25T06:19:55.775Z,67.60
2017-05-25T06:22:22.971Z,67.60
2017-05-25T06:24:50.137Z,67.80
2017-05-25T06:27:17.320Z,68.40
2017-05-25T06:29:44.582Z,68.70
2017-05-25T06:32:11.770Z,69.10
2017-05-25T06:34:38.950Z,69.10
2017-05-25T06:37:06.722Z,69.30
2017-05-25T06:39:33.886Z,69.70
2017-05-25T06:42:01.494Z,69.70
2017-05-25T06:44:29.201Z,70.40
2017-05-25T06:46:56.361Z,70.40
2017-05-25T06:49:23.538Z,70.60
2017-05-25T06:51:50.868Z,71.10
2017-05-25T06:54:18.049Z,71.20
2017-05-25T06:56:45.310Z,71.40
2017-05-25T06:59:12.510Z,71.10
2017-05-25T07:01:39.975Z,71.10
2017-05-25T07:04:07.239Z,71.70
2017-05-25T07:06:34.405Z,70.90
2017-05-25T07:09:01.571Z,71.20
2017-05-25T07:11:29.157Z,71.20
2017-05-25T07:13:56.438Z,70.70
2017-05-25T07:16:23.815Z,70.00
2017-05-25T07:18:51.038Z,69.50
2017-05-25T07:21:18.260Z,69.00
2017-05-25T07:23:45.470Z,68.90
2017-05-25T07:26:12.709Z,68.70
2017-05-25T07:28:40.216Z,68.40
2017-05-25T07:31:07.461Z,68.40
2017-05-25T07:33:34.641Z,68.60
2017-05-25T07:36:01.908Z,69.10
2017-05-25T07:38:29.180Z,68.60
2017-05-25T07:40:56.398Z,67.40
2017-05-25T07:43:23.937Z,67.50
2017-05-25T07:45:51.808Z,67.20
2017-05-25T07:48:19.034Z,68.70
2017-05-25T07:50:46.263Z,63.90
2017-05-25T07:53:13.543Z,61.50
2017-05-25T07:55:40.712Z,56.70
2017-05-25T07:58:07.881Z,53.80
2017-05-25T08:00:35.164Z,53.10
2017-05-25T08:03:02.366Z,52.00
2017-05-25T08:05:29.586Z,52.60
2017-05-25T08:07:56.883Z,53.40
2017-05-25T08:10:24.359Z,54.20
2017-05-25T08:12:51.553Z,53.80
2017-05-25T08:15:18.737Z,50.40
2017-05-25T08:17:45.980Z,48.60
2017-05-25T08:20:13.224Z,47.70
2017-05-25T08:22:41.026Z,45.60
2017-05-25T08:25:08.226Z,44.80
2017-05-25T08:27:35.408Z,45.20
2017-05-25T08:30:02.656Z,46.50
2017-05-25T08:32:29.832Z,48.80
2017-05-25T08:34:57.096Z,49.50
2017-05-25T08:37:24.375Z,50.40
2017-05-25T08:39:51.546Z,50.00
2017-05-25T08:42:18.822Z,49.30
2017-05-25T08:44:45.996Z,49.00
2017-05-25T08:47:13.545Z,48.00
2017-05-25T08:49:40.747Z,46.80
2017-05-25T08:52:07.961Z,48.20
2017-05-25T08:54:35.108Z,47.50
2017-05-25T08:57:02.308Z,47.90
2017-05-25T08:59:29.492Z,49.30
2017-05-25T09:01:56.708Z,51.00
2017-05-25T09:04:24.562Z,52.50
2017-05-25T09:06:51.766Z,53.30
2017-05-25T09:09:18.929Z,53.70
2017-05-25T09:11:46.103Z,53.80
2017-05-25T09:14:13.366Z,52.80
2017-05-25T09:16:40.590Z,53.60
2017-05-25T09:19:07.919Z,52.10
2017-05-25T09:21:35.173Z,50.80
2017-05-25T09:24:02.392Z,51.10
2017-05-25T09:26:29.642Z,50.90
2017-05-25T09:28:56.898Z,49.90
2017-05-25T09:31:24.111Z,50.10
2017-05-25T09:33:51.376Z,50.80
2017-05-25T09:36:18.654Z,50.80
2017-05-25T09:38:45.864Z,50.80
2017-05-25T09:41:13.058Z,49.30
2017-05-25T09:43:40.576Z,47.10
2017-05-25T09:46:08.056Z,47.70
2017-05-25T09:48:35.275Z,47.80
2017-05-25T09:51:02.511Z,47.40
2017-05-25T09:53:30.393Z,47.30
2017-05-25T09:55:57.665Z,47.00
2017-05-25T09:58:24.888Z,47.70
2017-05-25T10:00:52.212Z,48.80
2017-05-25T10:03:19.439Z,49.00
2017-05-25T10:05:46.599Z,49.40
2017-05-25T10:08:13.931Z,49.90
2017-05-25T10:10:41.734Z,50.40
2017-05-25T10:13:08.916Z,50.30
2017-05-25T10:15:36.063Z,50.50
2017-05-25T10:18:03.264Z,48.30
2017-05-25T10:20:30.453Z,47.40
2017-05-25T10:22:57.743Z,47.80
2017-05-25T10:25:24.952Z,46.80
2017-05-25T10:27:52.142Z,46.10
2017-05-25T10:30:19.317Z,45.10
2017-05-25T10:32:46.572Z,45.40
2017-05-25T10:35:13.848Z,45.10
2017-05-25T10:37:41.034Z,45.20
2017-05-25T10:40:08.216Z,45.50
2017-05-25T10:42:35.409Z,46.50
2017-05-25T10:45:02.613Z,46.90
2017-05-25T10:47:29.960Z,48.20
2017-05-25T10:49:57.186Z,48.90
2017-05-25T10:52:24.869Z,49.80
2017-05-25T10:54:52.039Z,49.00
2017-05-25T10:57:20.402Z,48.30
2017-05-25T10:59:47.582Z,48.10
2017-05-25T11:02:15.278Z,48.10
2017-05-25T11:04:42.574Z,48.40
2017-05-25T11:07:10.921Z,48.60
2017-05-25T11:09:38.241Z,49.10
2017-05-25T11:12:05.408Z,49.00
2017-05-25T11:14:32.622Z,49.10
2017-05-25T11:17:00.170Z,48.80
2017-05-25T11:19:27.348Z,48.70
2017-05-25T11:21:54.557Z,48.70
2017-05-25T11:24:21.734Z,48.40
2017-05-25T11:26:50.051Z,48.40
2017-05-25T11:29:17.232Z,48.10
2017-05-25T11:31:44.443Z,48.20
2017-05-25T11:34:11.702Z,48.10
2017-05-25T11:36:39.794Z,48.50
2017-05-25T11:39:07.006Z,49.00
2017-05-25T11:41:34.180Z,49.50
2017-05-25T11:44:01.820Z,50.00
2017-05-25T11:46:29.106Z,50.40
2017-05-25T11:48:56.282Z,50.50
2017-05-25T11:51:23.489Z,50.60
2017-05-25T11:53:50.673Z,50.60
2017-05-25T11:56:17.837Z,50.30
2017-05-25T11:58:45.143Z,49.90
2017-05-25T12:01:12.928Z,49.80
2017-05-25T12:03:40.311Z,49.70
2017-05-25T12:06:07.534Z,49.90
2017-05-25T12:08:34.773Z,50.40
2017-05-25T12:11:02.043Z,50.50
2017-05-25T12:13:29.315Z,50.40
2017-05-25T12:15:56.590Z,50.60
2017-05-25T12:18:23.788Z,50.70
2017-05-25T12:20:50.982Z,50.50
2017-05-25T12:23:18.210Z,50.30
2017-05-25T12:25:45.792Z,50.30
2017-05-25T12:28:13.065Z,49.90
2017-05-25T12:30:40.222Z,49.50
2017-05-25T12:33:07.511Z,49.00
2017-05-25T12:35:34.687Z,48.60
2017-05-25T12:38:01.875Z,48.10
2017-05-25T12:40:29.127Z,47.40
2017-05-25T12:42:56.340Z,47.10
2017-05-25T12:45:23.533Z,47.70
2017-05-25T12:47:50.740Z,46.80
2017-05-25T12:50:17.924Z,45.30
2017-05-25T12:52:45.196Z,45.40
2017-05-25T12:55:12.437Z,46.30
2017-05-25T12:57:40.047Z,45.80
2017-05-25T13:00:07.322Z,45.30
2017-05-25T13:02:35.152Z,45.50
2017-05-25T13:05:02.484Z,45.90
2017-05-25T13:07:29.661Z,47.20
2017-05-25T13:09:57.135Z,46.20
2017-05-25T13:12:24.345Z,45.50
2017-05-25T13:14:51.564Z,45.10
2017-05-25T13:17:18.856Z,45.10
2017-05-25T13:19:46.675Z,44.70
2017-05-25T13:22:13.877Z,45.20
2017-05-25T13:24:41.188Z,46.00
2017-05-25T13:27:08.419Z,46.40
2017-05-25T13:29:35.736Z,46.60
2017-05-25T13:32:03.114Z,46.00
2017-05-25T13:34:30.368Z,45.40
2017-05-25T13:36:57.577Z,45.10
2017-05-25T13:39:24.835Z,45.70
2017-05-25T13:41:52.011Z,45.10
2017-05-25T13:44:19.284Z,45.70
2017-05-25T13:46:46.463Z,43.00
2017-05-25T13:49:13.686Z,42.30
2017-05-25T13:51:40.882Z,42.10
2017-05-25T13:54:08.074Z,43.20
2017-05-25T13:56:35.345Z,44.30
2017-05-25T13:59:02.566Z,45.00
2017-05-25T14:01:29.803Z,45.70
2017-05-25T14:03:57.005Z,46.50
2017-05-25T14:06:24.190Z,46.50
2017-05-25T14:08:52.008Z,47.10
2017-05-25T14:11:19.261Z,46.50
2017-05-25T14:13:46.570Z,46.70
2017-05-25T14:16:13.752Z,46.80
2017-05-25T14:18:40.919Z,47.40
2017-05-25T14:21:08.158Z,47.10
2017-05-25T14:23:35.361Z,47.10
2017-05-25T14:26:02.566Z,47.00
2017-05-25T14:28:29.809Z,46.70
2017-05-25T14:30:57.002Z,46.30
2017-05-25T14:33:24.257Z,45.40
2017-05-25T14:35:51.434Z,45.50
2017-05-25T14:38:18.638Z,46.10
2017-05-25T14:40:45.822Z,46.70
2017-05-25T14:43:13.587Z,46.50
2017-05-25T14:45:40.860Z,46.50
2017-05-25T14:48:08.027Z,46.30
2017-05-25T14:50:36.238Z,46.90
2017-05-25T14:53:03.410Z,46.30
2017-05-25T14:55:31.644Z,46.30
2017-05-25T14:57:58.805Z,46.70
2017-05-25T15:00:26.111Z,44.80
2017-05-25T15:02:53.797Z,43.30
2017-05-25T15:05:21.069Z,43.40
2017-05-25T15:07:48.256Z,43.40
2017-05-25T15:10:15.473Z,42.90
2017-05-25T15:12:42.663Z,43.60
2017-05-25T15:15:09.853Z,43.20
2017-05-25T15:17:37.024Z,44.00
2017-05-25T15:20:04.216Z,44.40
2017-05-25T15:22:31.419Z,44.70
2017-05-25T15:24:58.585Z,45.10
2017-05-25T15:27:25.758Z,46.30
2017-05-25T15:29:52.934Z,47.20
2017-05-25T15:32:20.105Z,47.70
2017-05-25T15:34:47.268Z,47.50
2017-05-25T15:37:14.512Z,47.30
2017-05-25T15:39:41.712Z,47.40
2017-05-25T15:42:08.902Z,47.50
2017-05-25T15:44:36.077Z,48.00
2017-05-25T15:47:03.248Z,47.80
2017-05-25T15:49:30.445Z,47.80
2017-05-25T15:51:57.625Z,48.50
2017-05-25T15:54:24.810Z,48.60
2017-05-25T15:56:51.986Z,48.20
2017-05-25T15:59:19.271Z,48.80
2017-05-25T16:01:46.432Z,47.90
2017-05-25T16:04:13.622Z,47.20
2017-05-25T16:06:40.847Z,47.10
2017-05-25T16:09:07.999Z,46.70
2017-05-25T16:11:35.179Z,46.20
2017-05-25T16:14:02.396Z,46.50
2017-05-25T16:16:29.604Z,46.80
2017-05-25T16:18:56.786Z,47.00
2017-05-25T16:21:23.980Z,47.60
2017-05-25T16:23:51.125Z,47.60
2017-05-25T16:26:18.304Z,47.30
2017-05-25T16:28:45.634Z,46.20
2017-05-25T16:31:12.837Z,46.10
2017-05-25T16:33:40.327Z,46.30
2017-05-25T16:36:07.524Z,46.60
2017-05-25T16:38:34.715Z,46.90
2017-05-25T16:41:02.002Z,46.80
2017-05-25T16:43:29.908Z,47.40
2017-05-25T16:45:57.168Z,48.20
2017-05-25T16:48:24.324Z,48.40
2017-05-25T16:50:51.503Z,48.60
2017-05-25T16:53:18.697Z,49.60
2017-05-25T16:55:45.959Z,48.40
2017-05-25T16:58:13.182Z,48.50
2017-05-25T17:00:40.402Z,47.70
2017-05-25T17:03:07.676Z,48.10
2017-05-25T17:05:34.887Z,48.50
2017-05-25T17:08:02.107Z,48.30
2017-05-25T17:10:29.327Z,48.40
2017-05-25T17:12:56.525Z,48.80
2017-05-25T17:15:23.741Z,49.50
2017-05-25T17:17:51.119Z,50.60
2017-05-25T17:20:18.391Z,51.40
2017-05-25T17:22:45.685Z,51.90
2017-05-25T17:25:12.972Z,52.70
2017-05-25T17:27:40.319Z,53.20
2017-05-25T17:30:07.591Z,53.60
2017-05-25T17:32:34.865Z,54.20
2017-05-25T17:35:02.141Z,55.00
2017-05-25T17:37:29.502Z,56.10
2017-05-25T17:39:56.708Z,57.20
2017-05-25T17:42:23.964Z,58.00
2017-05-25T17:44:51.238Z,58.90
2017-05-25T17:47:18.462Z,59.60
2017-05-25T17:49:45.714Z,60.50
2017-05-25T17:52:13.024Z,61.70
2017-05-25T17:54:40.253Z,62.70
2017-05-25T17:57:07.465Z,63.60
2017-05-25T17:59:34.718Z,64.00
2017-05-25T18:02:02.073Z,64.10
2017-05-25T18:04:29.257Z,64.30
2017-05-25T18:06:56.465Z,64.60
2017-05-25T18:09:23.772Z,64.90
2017-05-25T18:11:51.949Z,64.80
2017-05-25T18:14:19.153Z,64.60
2017-05-25T18:16:46.356Z,64.80
2017-05-25T18:19:13.587Z,64.90
2017-05-25T18:21:40.819Z,65.20
2017-05-25T18:24:08.031Z,65.30
2017-05-25T18:26:35.245Z,65.40
2017-05-25T18:29:02.974Z,65.80
2017-05-25T18:31:30.160Z,65.90
2017-05-25T18:33:57.378Z,66.30
2017-05-25T18:36:24.812Z,66.30
2017-05-25T18:38:52.007Z,66.20
2017-05-25T18:41:19.260Z,66.00
2017-05-25T18:43:46.635Z,65.90
2017-05-25T18:46:13.960Z,65.90
2017-05-25T18:48:41.290Z,65.80
2017-05-25T18:51:08.560Z,65.70
2017-05-25T18:53:35.836Z,66.00
2017-05-25T18:56:03.044Z,65.80
2017-05-25T18:58:30.217Z,65.90
2017-05-25T19:00:57.414Z,65.90
2017-05-25T19:03:25.158Z,66.40
2017-05-25T19:05:52.318Z,66.90
2017-05-25T19:08:19.514Z,67.30
2017-05-25T19:10:46.910Z,67.60
2017-05-25T19:13:14.643Z,68.00
2017-05-25T19:15:42.795Z,68.10
2017-05-25T19:18:10.215Z,68.40
2017-05-25T19:20:37.813Z,68.50
2017-05-25T19:23:05.070Z,68.70
2017-05-25T19:25:32.355Z,68.90
2017-05-25T19:27:59.866Z,69.20
2017-05-25T19:30:27.198Z,69.70
2017-05-25T19:32:54.472Z,70.00
2017-05-25T19:35:21.746Z,70.40
2017-05-25T19:37:48.918Z,70.70
2017-05-25T19:40:16.078Z,71.00
2017-05-25T19:42:43.568Z,71.20
2017-05-25T19:45:10.767Z,71.30
2017-05-25T19:47:37.973Z,71.40
2017-05-25T19:50:05.199Z,71.40
2017-05-25T19:52:32.461Z,71.50
2017-05-25T19:54:59.850Z,71.90
2017-05-25T19:57:27.074Z,72.00
2017-05-25T19:59:54.248Z,72.20
2017-05-25T20:02:21.448Z,72.00
2017-05-25T20:04:48.730Z,72.00
2017-05-25T20:07:15.927Z,72.10
2017-05-25T20:09:43.363Z,72.30
2017-05-25T20:12:10.656Z,72.80
2017-05-25T20:14:37.930Z,72.90
2017-05-25T20:17:05.204Z,72.90
2017-05-25T20:19:32.478Z,73.10
2017-05-25T20:21:59.754Z,73.10
2017-05-25T20:24:27.133Z,73.30
2017-05-25T20:26:54.505Z,73.70
2017-05-25T20:29:21.882Z,74.00
2017-05-25T20:31:49.159Z,74.00
2017-05-25T20:34:16.431Z,74.40
2017-05-25T20:36:43.792Z,74.70
2017-05-25T20:39:10.998Z,74.80
2017-05-25T20:41:38.192Z,74.80
2017-05-25T20:44:05.406Z,74.60
2017-05-25T20:46:32.666Z,74.90
2017-05-25T20:48:59.850Z,74.90
2017-05-25T20:51:27.150Z,75.20
2017-05-25T20:53:54.421Z,75.40
2017-05-25T20:56:21.591Z,75.70
2017-05-25T20:58:48.836Z,75.80
2017-05-25T21:01:16.143Z,75.90
2017-05-25T21:03:43.340Z,75.90
2017-05-25T21:06:10.572Z,76.00
2017-05-25T21:08:37.809Z,76.00
2017-05-25T21:11:05.135Z,76.10
2017-05-25T21:13:32.414Z,76.20
2017-05-25T21:15:59.571Z,76.00
2017-05-25T21:18:26.840Z,75.90
2017-05-25T21:20:54.143Z,76.60
2017-05-25T21:23:21.381Z,76.30
2017-05-25T21:25:48.592Z,76.60
2017-05-25T21:28:15.853Z,76.70
2017-05-25T21:30:43.044Z,77.00
2017-05-25T21:33:10.266Z,77.10
2017-05-25T21:35:37.585Z,77.20
2017-05-25T21:38:04.821Z,77.10
2017-05-25T21:40:32.123Z,77.10
2017-05-25T21:42:59.295Z,77.10
2017-05-25T21:45:26.564Z,77.00
2017-05-25T21:47:53.735Z,76.60
2017-05-25T21:50:21.013Z,77.20
2017-05-25T21:52:48.285Z,77.60
2017-05-25T21:55:15.572Z,77.70
2017-05-25T21:57:42.768Z,77.60
2017-05-25T22:00:09.987Z,77.60
2017-05-25T22:02:37.171Z,76.90
2017-05-25T22:05:04.396Z,77.60
2017-05-25T22:07:31.597Z,77.60
2017-05-25T22:09:58.856Z,77.50
2017-05-25T22:12:26.053Z,77.20
2017-05-25T22:14:53.249Z,76.70
2017-05-25T22:17:20.460Z,76.70
2017-05-25T22:19:47.795Z,76.90
2017-05-25T22:22:15.069Z,77.30
2017-05-25T22:24:42.340Z,77.40
2017-05-25T22:27:09.612Z,77.40
2017-05-25T22:29:36.810Z,77.90
2017-05-25T22:32:04.265Z,77.90
2017-05-25T22:34:31.486Z,78.10
2017-05-25T22:36:59.217Z,78.40
2017-05-25T22:39:26.402Z,78.50
2017-05-25T22:41:53.597Z,78.30
2017-05-25T22:44:20.839Z,78.20
2017-05-25T22:46:48.118Z,78.20
2017-05-25T22:49:15.286Z,78.20
2017-05-25T22:51:42.445Z,78.00
2017-05-25T22:54:09.638Z,78.10
2017-05-25T22:56:36.802Z,78.00
2017-05-25T22:59:03.959Z,77.80
2017-05-25T23:01:31.146Z,77.70
2017-05-25T23:03:58.316Z,77.70
2017-05-25T23:06:25.592Z,77.80
2017-05-25T23:08:52.866Z,77.80
2017-05-25T23:11:20.032Z,77.80
2017-05-25T23:13:47.212Z,78.10
2017-05-25T23:16:14.391Z,78.10
2017-05-25T23:18:41.567Z,78.10
2017-05-25T23:21:08.760Z,78.00
2017-05-25T23:23:35.948Z,78.10
2017-05-25T23:26:03.141Z,78.10
2017-05-25T23:28:30.298Z,78.20
2017-05-25T23:30:57.515Z,78.00
2017-05-25T23:33:24.686Z,78.00
2017-05-25T23:35:51.876Z,78.00
2017-05-25T23:38:19.077Z,78.20
2017-05-25T23:40:46.260Z,78.40
2017-05-25T23:43:13.413Z,78.30
2017-05-25T23:45:40.585Z,78.30
2017-05-25T23:48:07.757Z,78.30
2017-05-25T23:50:34.929Z,78.50
2017-05-25T23:53:02.085Z,78.30
2017-05-25T23:55:29.256Z,78.30
2017-05-25T23:57:56.612Z,78.50
